Private Wetterstation Sandau
Wetterdaten: Mittwoch, 29.02.2012
Datum Zeit Temp. A. Feuchte A. Luftdruck Regen Wind Richtung Richtung Taupunkt Windchill
29.02.2012 00:02 9,9 C 92 % 1018,7 hPa 0,0 l/m 19,1 km/h (3 Bft) W 270 8,7 C 7,3 C
29.02.2012 00:07 9,9 C 92 % 1018,9 hPa 0,0 l/m 10,1 km/h (2 Bft) W-NW 292 8,7 C 8,5 C
29.02.2012 00:12 9,9 C 92 % 1018,9 hPa 0,0 l/m 13,7 km/h (3 Bft) NW 315 8,7 C 8,0 C
29.02.2012 00:17 9,9 C 92 % 1019,1 hPa 0,0 l/m 14,4 km/h (3 Bft) W-NW 292 8,7 C 7,9 C
29.02.2012 00:22 9,9 C 92 % 1019,0 hPa 0,0 l/m 8,3 km/h (2 Bft) NW 315 8,7 C 8,8 C
29.02.2012 00:27 9,9 C 92 % 1019,2 hPa 0,0 l/m 13,7 km/h (3 Bft) W 270 8,7 C 8,0 C
29.02.2012 00:32 9,9 C 92 % 1019,2 hPa 0,0 l/m 15,8 km/h (3 Bft) W-NW 292 8,7 C 7,7 C
29.02.2012 00:37 9,9 C 92 % 1019,4 hPa 0,0 l/m 13,0 km/h (3 Bft) NW 315 8,7 C 8,1 C
29.02.2012 00:42 9,9 C 92 % 1019,3 hPa 0,0 l/m 8,6 km/h (2 Bft) W-NW 292 8,7 C 8,8 C
29.02.2012 00:47 9,9 C 92 % 1019,4 hPa 0,0 l/m 9,0 km/h (2 Bft) W-NW 292 8,7 C 8,7 C
29.02.2012 00:52 9,9 C 92 % 1019,4 hPa 0,0 l/m 6,5 km/h (2 Bft) W 270 8,7 C 9,2 C
29.02.2012 00:57 9,9 C 92 % 1019,4 hPa 0,0 l/m 10,1 km/h (2 Bft) W-SW 247 8,7 C 8,5 C
29.02.2012 01:02 9,9 C 92 % 1019,5 hPa 0,0 l/m 9,0 km/h (2 Bft) W-NW 292 8,7 C 8,7 C
29.02.2012 01:07 9,9 C 92 % 1019,3 hPa 0,0 l/m 9,4 km/h (2 Bft) NW 315 8,7 C 8,6 C
29.02.2012 01:12 9,9 C 92 % 1019,3 hPa 0,0 l/m 6,5 km/h (2 Bft) W-NW 292 8,7 C 9,2 C
29.02.2012 01:17 9,9 C 92 % 1019,4 hPa 0,0 l/m 8,6 km/h (2 Bft) NW 315 8,7 C 8,8 C
29.02.2012 01:22 9,8 C 92 % 1019,3 hPa 0,0 l/m 6,5 km/h (2 Bft) W 270 8,6 C 9,1 C
29.02.2012 01:27 9,8 C 92 % 1019,5 hPa 0,0 l/m 9,7 km/h (2 Bft) W-NW 292 8,6 C 8,4 C
29.02.2012 01:32 9,8 C 92 % 1019,5 hPa 0,0 l/m 5,8 km/h (2 Bft) W 270 8,6 C 9,3 C
29.02.2012 01:37 9,8 C 92 % 1019,4 hPa 0,0 l/m 13,0 km/h (3 Bft) NW 315 8,6 C 7,9 C
29.02.2012 01:42 9,8 C 92 % 1019,6 hPa 0,0 l/m 7,6 km/h (2 Bft) W-NW 292 8,6 C 8,9 C
29.02.2012 01:47 9,8 C 92 % 1019,5 hPa 0,0 l/m 8,3 km/h (2 Bft) N-NW 337 8,6 C 8,7 C
29.02.2012 01:52 9,8 C 92 % 1019,4 hPa 0,0 l/m 12,6 km/h (3 Bft) W-NW 292 8,6 C 8,0 C
29.02.2012 01:57 9,8 C 92 % 1019,6 hPa 0,0 l/m 11,2 km/h (2 Bft) W-NW 292 8,6 C 8,2 C
29.02.2012 02:02 9,8 C 92 % 1019,5 hPa 0,0 l/m 14,4 km/h (3 Bft) NW 315 8,6 C 7,7 C
29.02.2012 02:07 9,7 C 92 % 1019,8 hPa 0,0 l/m 11,2 km/h (2 Bft) W-NW 292 8,5 C 8,1 C
29.02.2012 02:12 9,6 C 92 % 1019,5 hPa 0,0 l/m 15,8 km/h (3 Bft) W-NW 292 8,4 C 7,3 C
29.02.2012 02:17 9,6 C 92 % 1019,5 hPa 0,0 l/m 13,7 km/h (3 Bft) W 270 8,4 C 7,6 C
29.02.2012 02:22 9,6 C 92 % 1019,7 hPa 0,0 l/m 9,0 km/h (2 Bft) W 270 8,4 C 8,3 C
29.02.2012 02:27 9,6 C 92 % 1019,7 hPa 0,0 l/m 10,8 km/h (2 Bft) W 270 8,4 C 8,0 C
29.02.2012 02:32 9,6 C 92 % 1019,7 hPa 0,0 l/m 6,1 km/h (2 Bft) W 270 8,4 C 9,0 C
29.02.2012 02:37 9,5 C 92 % 1019,8 hPa 0,0 l/m 5,0 km/h (1 Bft) W 270 8,3 C 9,2 C
29.02.2012 02:42 9,5 C 92 % 1019,9 hPa 0,0 l/m 11,9 km/h (2 Bft) W-NW 292 8,3 C 7,7 C
29.02.2012 02:47 9,5 C 92 % 1019,9 hPa 0,0 l/m 7,9 km/h (2 Bft) W-NW 292 8,3 C 8,4 C
29.02.2012 02:52 9,5 C 92 % 1019,7 hPa 0,0 l/m 7,9 km/h (2 Bft) W-NW 292 8,3 C 8,4 C
29.02.2012 02:57 9,5 C 92 % 1019,7 hPa 0,0 l/m 7,6 km/h (2 Bft) W 270 8,3 C 8,5 C
29.02.2012 03:02 9,4 C 92 % 1019,8 hPa 0,0 l/m 11,2 km/h (2 Bft) NW 315 8,2 C 7,7 C
29.02.2012 03:07 9,4 C 92 % 1019,9 hPa 0,0 l/m 7,6 km/h (2 Bft) NW 315 8,2 C 8,4 C
29.02.2012 03:12 9,4 C 92 % 1019,8 hPa 0,0 l/m 8,3 km/h (2 Bft) W-NW 292 8,2 C 8,2 C
29.02.2012 03:17 9,5 C 92 % 1019,9 hPa 0,0 l/m 7,2 km/h (2 Bft) N-NW 337 8,3 C 8,6 C
29.02.2012 03:22 9,4 C 92 % 1020,0 hPa 0,0 l/m 13,0 km/h (3 Bft) W 270 8,2 C 7,4 C
29.02.2012 03:27 9,4 C 92 % 1020,1 hPa 0,0 l/m 6,5 km/h (2 Bft) NW 315 8,2 C 8,7 C
29.02.2012 03:32 9,4 C 93 % 1020,1 hPa 0,0 l/m 9,7 km/h (2 Bft) W-SW 247 8,3 C 8,0 C
29.02.2012 03:37 9,4 C 93 % 1020,2 hPa 0,0 l/m 6,1 km/h (2 Bft) NW 315 8,3 C 8,8 C
29.02.2012 03:42 9,4 C 93 % 1020,1 hPa 0,0 l/m 8,6 km/h (2 Bft) N-NW 337 8,3 C 8,2 C
29.02.2012 03:47 9,4 C 93 % 1020,0 hPa 0,0 l/m 9,7 km/h (2 Bft) W-NW 292 8,3 C 8,0 C
29.02.2012 03:52 9,4 C 93 % 1019,9 hPa 0,0 l/m 9,7 km/h (2 Bft) W 270 8,3 C 8,0 C
29.02.2012 03:57 9,4 C 93 % 1020,1 hPa 0,0 l/m 7,6 km/h (2 Bft) N 360 8,3 C 8,4 C
29.02.2012 04:02 9,3 C 93 % 1020,1 hPa 0,0 l/m 14,8 km/h (3 Bft) NW 315 8,2 C 7,1 C
29.02.2012 04:07 9,4 C 93 % 1020,1 hPa 0,0 l/m 13,3 km/h (3 Bft) W-NW 292 8,3 C 7,4 C
29.02.2012 04:12 9,3 C 93 % 1020,1 hPa 0,0 l/m 11,2 km/h (2 Bft) N-NW 337 8,2 C 7,6 C
29.02.2012 04:17 9,3 C 93 % 1020,3 hPa 0,0 l/m 4,3 km/h (1 Bft) W-NW 292 8,2 C 9,3 C
29.02.2012 04:22 9,3 C 93 % 1020,3 hPa 0,0 l/m 7,2 km/h (2 Bft) W-NW 292 8,2 C 8,4 C
29.02.2012 04:27 9,3 C 93 % 1020,3 hPa 0,0 l/m 5,0 km/h (1 Bft) N-NW 337 8,2 C 9,0 C
29.02.2012 04:32 9,3 C 93 % 1020,3 hPa 0,0 l/m 7,9 km/h (2 Bft) N 360 8,2 C 8,2 C
29.02.2012 04:37 9,3 C 93 % 1020,3 hPa 0,0 l/m 2,5 km/h (1 Bft) N 360 8,2 C 9,3 C
29.02.2012 04:42 9,3 C 93 % 1020,4 hPa 0,0 l/m 5,0 km/h (1 Bft) N-NO 22 8,2 C 9,0 C
29.02.2012 04:47 9,3 C 93 % 1020,5 hPa 0,0 l/m 9,0 km/h (2 Bft) NW 315 8,2 C 8,0 C
29.02.2012 04:52 9,3 C 93 % 1020,5 hPa 0,0 l/m 4,7 km/h (1 Bft) W 270 8,2 C 9,1 C
29.02.2012 04:57 9,3 C 93 % 1020,4 hPa 0,0 l/m 5,8 km/h (2 Bft) W-NW 292 8,2 C 8,7 C
29.02.2012 05:02 9,3 C 93 % 1020,5 hPa 0,0 l/m 4,3 km/h (1 Bft) N-NO 22 8,2 C 9,3 C
29.02.2012 05:07 9,3 C 93 % 1020,5 hPa 0,0 l/m 7,9 km/h (2 Bft) W-NW 292 8,2 C 8,2 C
29.02.2012 05:12 9,2 C 93 % 1020,6 hPa 0,0 l/m 8,6 km/h (2 Bft) W-NW 292 8,1 C 7,9 C
29.02.2012 05:17 9,2 C 93 % 1020,7 hPa 0,0 l/m 8,6 km/h (2 Bft) NO 45 8,1 C 7,9 C
29.02.2012 05:22 9,2 C 93 % 1020,7 hPa 0,0 l/m 9,7 km/h (2 Bft) W-SW 247 8,1 C 7,7 C
29.02.2012 05:27 9,2 C 93 % 1020,7 hPa 0,0 l/m 5,8 km/h (2 Bft) NW 315 8,1 C 8,6 C
29.02.2012 05:32 9,1 C 93 % 1020,8 hPa 0,0 l/m 16,9 km/h (3 Bft) NW 315 8,0 C 6,6 C
29.02.2012 05:37 9,1 C 93 % 1020,8 hPa 0,0 l/m 13,0 km/h (3 Bft) NW 315 8,0 C 7,1 C
29.02.2012 05:42 9,1 C 93 % 1020,7 hPa 0,0 l/m 23,0 km/h (4 Bft) N-NW 337 8,0 C 6,0 C
29.02.2012 05:47 9,0 C 93 % 1020,8 hPa 0,0 l/m 14,4 km/h (3 Bft) N-NW 337 7,9 C 6,8 C
29.02.2012 05:52 9,0 C 93 % 1020,9 hPa 0,0 l/m 14,0 km/h (3 Bft) NW 315 7,9 C 6,8 C
29.02.2012 05:57 8,9 C 92 % 1020,8 hPa 0,0 l/m 16,6 km/h (3 Bft) W-NW 292 7,7 C 6,4 C
29.02.2012 06:02 8,9 C 93 % 1020,7 hPa 0,0 l/m 0,0 km/h (0 Bft) NW 315 7,8 C 8,9 C
29.02.2012 06:07 8,9 C 93 % 1020,9 hPa 0,0 l/m 5,8 km/h (2 Bft) W 270 7,8 C 8,3 C
29.02.2012 06:12 8,9 C 93 % 1020,9 hPa 0,0 l/m 5,8 km/h (2 Bft) S-SO 157 7,8 C 8,3 C
29.02.2012 06:17 8,9 C 93 % 1021,0 hPa 0,0 l/m 14,8 km/h (3 Bft) NW 315 7,8 C 6,6 C
29.02.2012 06:22 8,9 C 93 % 1021,0 hPa 0,0 l/m 5,0 km/h (1 Bft) W 270 7,8 C 8,5 C
29.02.2012 06:27 8,9 C 93 % 1021,0 hPa 0,0 l/m 10,1 km/h (2 Bft) N-NW 337 7,8 C 7,3 C
29.02.2012 06:32 8,9 C 93 % 1021,0 hPa 0,0 l/m 6,5 km/h (2 Bft) W-NW 292 7,8 C 8,1 C
29.02.2012 06:37 8,9 C 93 % 1021,0 hPa 0,0 l/m 4,0 km/h (1 Bft) NW 315 7,8 C 8,9 C
29.02.2012 06:42 8,9 C 93 % 1021,0 hPa 0,0 l/m 13,3 km/h (3 Bft) NW 315 7,8 C 6,8 C
29.02.2012 06:47 8,9 C 93 % 1020,9 hPa 0,0 l/m 16,2 km/h (3 Bft) N 360 7,8 C 6,4 C
29.02.2012 06:52 9,0 C 93 % 1021,0 hPa 0,0 l/m 10,1 km/h (2 Bft) N 360 7,9 C 7,4 C
29.02.2012 06:57 8,9 C 92 % 1021,2 hPa 0,0 l/m 9,4 km/h (2 Bft) NW 315 7,7 C 7,4 C
29.02.2012 07:02 8,9 C 92 % 1021,3 hPa 0,0 l/m 5,4 km/h (1 Bft) N-NO 22 7,7 C 8,4 C
29.02.2012 07:07 8,9 C 92 % 1021,3 hPa 0,0 l/m 11,2 km/h (2 Bft) NO 45 7,7 C 7,1 C
29.02.2012 07:12 8,9 C 92 % 1021,2 hPa 0,0 l/m 3,6 km/h (1 Bft) NW 315 7,7 C 8,9 C
29.02.2012 07:17 8,9 C 92 % 1021,4 hPa 0,0 l/m 6,5 km/h (2 Bft) NW 315 7,7 C 8,1 C
29.02.2012 07:22 8,9 C 92 % 1021,5 hPa 0,0 l/m 2,5 km/h (1 Bft) NO 45 7,7 C 8,9 C
29.02.2012 07:27 8,9 C 92 % 1021,5 hPa 0,0 l/m 11,5 km/h (2 Bft) N-NW 337 7,7 C 7,1 C
29.02.2012 07:32 8,8 C 92 % 1021,5 hPa 0,0 l/m 7,2 km/h (2 Bft) NW 315 7,6 C 7,8 C
29.02.2012 07:37 8,8 C 92 % 1021,8 hPa 0,0 l/m 13,7 km/h (3 Bft) N-NW 337 7,6 C 6,6 C
29.02.2012 07:42 8,8 C 92 % 1021,8 hPa 0,0 l/m 7,2 km/h (2 Bft) O 90 7,6 C 7,8 C
29.02.2012 07:47 8,8 C 92 % 1021,7 hPa 0,0 l/m 5,0 km/h (1 Bft) W-NW 292 7,6 C 8,4 C
29.02.2012 07:52 8,8 C 92 % 1021,9 hPa 0,0 l/m 7,2 km/h (2 Bft) NW 315 7,6 C 7,8 C
29.02.2012 07:57 8,8 C 92 % 1021,9 hPa 0,0 l/m 14,0 km/h (3 Bft) N-NW 337 7,6 C 6,6 C
29.02.2012 08:02 8,8 C 92 % 1022,0 hPa 0,0 l/m 6,1 km/h (2 Bft) N 360 7,6 C 8,1 C
29.02.2012 08:07 8,8 C 92 % 1022,0 hPa 0,0 l/m 7,6 km/h (2 Bft) W 270 7,6 C 7,7 C
29.02.2012 08:12 8,8 C 92 % 1022,1 hPa 0,0 l/m 7,2 km/h (2 Bft) NW 315 7,6 C 7,8 C
29.02.2012 08:17 8,8 C 92 % 1022,2 hPa 0,0 l/m 7,2 km/h (2 Bft) N 360 7,6 C 7,8 C
29.02.2012 08:22 8,8 C 92 % 1022,0 hPa 0,0 l/m 7,2 km/h (2 Bft) N-NW 337 7,6 C 7,8 C
29.02.2012 08:27 8,8 C 93 % 1022,2 hPa 0,0 l/m 18,4 km/h (3 Bft) N-NW 337 7,7 C 6,0 C
29.02.2012 08:32 8,8 C 93 % 1022,3 hPa 0,0 l/m 6,1 km/h (2 Bft) NO 45 7,7 C 8,1 C
29.02.2012 08:37 8,8 C 93 % 1022,4 hPa 0,0 l/m 6,5 km/h (2 Bft) W 270 7,7 C 8,0 C
29.02.2012 08:42 8,8 C 93 % 1022,2 hPa 0,0 l/m 7,6 km/h (2 Bft) N-NO 22 7,7 C 7,7 C
29.02.2012 08:47 8,8 C 93 % 1022,4 hPa 0,0 l/m 10,8 km/h (2 Bft) NO 45 7,7 C 7,1 C
29.02.2012 08:52 8,9 C 93 % 1022,4 hPa 0,0 l/m 12,2 km/h (2 Bft) W-NW 292 7,8 C 7,0 C
29.02.2012 08:57 8,9 C 93 % 1022,5 hPa 0,0 l/m 5,0 km/h (1 Bft) N 360 7,8 C 8,5 C
29.02.2012 09:02 8,9 C 93 % 1022,6 hPa 0,0 l/m 2,9 km/h (1 Bft) W 270 7,8 C 8,9 C
29.02.2012 09:07 8,9 C 93 % 1022,5 hPa 0,0 l/m 8,6 km/h (2 Bft) NW 315 7,8 C 7,6 C
29.02.2012 09:12 8,9 C 93 % 1022,6 hPa 0,0 l/m 9,0 km/h (2 Bft) NW 315 7,8 C 7,5 C
29.02.2012 09:17 8,9 C 93 % 1022,6 hPa 0,0 l/m 10,1 km/h (2 Bft) NO 45 7,8 C 7,3 C
29.02.2012 09:22 8,9 C 93 % 1022,7 hPa 0,0 l/m 1,4 km/h (1 Bft) N 360 7,8 C 8,9 C
29.02.2012 09:27 8,9 C 93 % 1022,8 hPa 0,0 l/m 6,8 km/h (2 Bft) NW 315 7,8 C 8,0 C
29.02.2012 09:32 8,9 C 93 % 1022,7 hPa 0,0 l/m 8,3 km/h (2 Bft) NW 315 7,8 C 7,7 C
29.02.2012 09:37 8,9 C 93 % 1022,7 hPa 0,0 l/m 13,3 km/h (3 Bft) NW 315 7,8 C 6,8 C
29.02.2012 09:42 8,9 C 92 % 1023,0 hPa 0,0 l/m 5,8 km/h (2 Bft) NW 315 7,7 C 8,3 C
29.02.2012 09:47 8,9 C 92 % 1022,8 hPa 0,0 l/m 9,0 km/h (2 Bft) N-NW 337 7,7 C 7,5 C
29.02.2012 09:52 8,9 C 93 % 1023,1 hPa 0,0 l/m 6,1 km/h (2 Bft) SW 225 7,8 C 8,2 C
29.02.2012 09:57 8,9 C 93 % 1023,2 hPa 0,0 l/m 6,5 km/h (2 Bft) N-NW 337 7,8 C 8,1 C
29.02.2012 10:02 8,9 C 93 % 1023,0 hPa 0,0 l/m 7,9 km/h (2 Bft) N 360 7,8 C 7,7 C
29.02.2012 10:07 8,9 C 93 % 1023,2 hPa 0,0 l/m 5,8 km/h (2 Bft) N 360 7,8 C 8,3 C
29.02.2012 10:12 9,0 C 93 % 1023,3 hPa 0,0 l/m 9,4 km/h (2 Bft) N-NW 337 7,9 C 7,5 C
29.02.2012 10:17 9,0 C 92 % 1023,3 hPa 0,0 l/m 12,2 km/h (2 Bft) NW 315 7,8 C 7,1 C
29.02.2012 10:22 9,1 C 92 % 1023,3 hPa 0,0 l/m 4,0 km/h (1 Bft) W-NW 292 7,9 C 9,1 C
29.02.2012 10:27 9,1 C 92 % 1023,3 hPa 0,0 l/m 10,8 km/h (2 Bft) W-NW 292 7,9 C 7,4 C
29.02.2012 10:32 9,1 C 92 % 1023,3 hPa 0,0 l/m 8,3 km/h (2 Bft) N-NO 22 7,9 C 7,9 C
29.02.2012 10:37 9,1 C 92 % 1023,4 hPa 0,0 l/m 3,6 km/h (1 Bft) NW 315 7,9 C 9,1 C
29.02.2012 10:42 9,1 C 92 % 1023,3 hPa 0,0 l/m 6,1 km/h (2 Bft) N 360 7,9 C 8,4 C
29.02.2012 10:47 9,1 C 92 % 1023,3 hPa 0,0 l/m 7,6 km/h (2 Bft) N-NO 22 7,9 C 8,0 C
29.02.2012 10:52 9,2 C 92 % 1023,4 hPa 0,0 l/m 5,8 km/h (2 Bft) O-NO 67 8,0 C 8,6 C
29.02.2012 10:57 9,2 C 92 % 1023,7 hPa 0,0 l/m 6,1 km/h (2 Bft) NO 45 8,0 C 8,5 C
29.02.2012 11:02 9,2 C 92 % 1023,7 hPa 0,0 l/m 5,0 km/h (1 Bft) N-NO 22 8,0 C 8,8 C
29.02.2012 11:07 9,3 C 92 % 1023,7 hPa 0,0 l/m 6,5 km/h (2 Bft) W 270 8,1 C 8,5 C
29.02.2012 11:12 9,3 C 92 % 1023,7 hPa 0,0 l/m 7,9 km/h (2 Bft) NW 315 8,1 C 8,2 C
29.02.2012 11:17 9,4 C 92 % 1023,7 hPa 0,0 l/m 11,5 km/h (2 Bft) N 360 8,2 C 7,7 C
29.02.2012 11:22 9,4 C 92 % 1023,8 hPa 0,0 l/m 5,0 km/h (1 Bft) N-NW 337 8,2 C 9,1 C
29.02.2012 11:27 9,5 C 92 % 1023,9 hPa 0,0 l/m 15,1 km/h (3 Bft) N-NW 337 8,3 C 7,3 C
29.02.2012 11:32 9,5 C 92 % 1023,9 hPa 0,0 l/m 6,1 km/h (2 Bft) N-NO 22 8,3 C 8,9 C
29.02.2012 11:37 9,6 C 92 % 1023,9 hPa 0,0 l/m 2,2 km/h (1 Bft) NO 45 8,4 C 9,6 C
29.02.2012 11:42 9,7 C 92 % 1023,7 hPa 0,0 l/m 4,0 km/h (1 Bft) W 270 8,5 C 9,7 C
29.02.2012 11:47 9,8 C 92 % 1023,8 hPa 0,0 l/m 4,0 km/h (1 Bft) W-SW 247 8,6 C 9,8 C
29.02.2012 11:52 9,9 C 92 % 1023,7 hPa 0,0 l/m 5,0 km/h (1 Bft) W-NW 292 8,7 C 9,6 C
29.02.2012 11:57 10,1 C 92 % 1023,7 hPa 0,0 l/m 8,6 km/h (2 Bft) W-NW 292 8,9 C 10,1 C
29.02.2012 12:02 10,1 C 91 % 1023,6 hPa 0,0 l/m 7,6 km/h (2 Bft) W 270 8,7 C 10,1 C
29.02.2012 12:07 10,1 C 91 % 1023,7 hPa 0,0 l/m 10,1 km/h (2 Bft) N-NO 22 8,7 C 10,1 C
29.02.2012 12:12 10,1 C 91 % 1023,6 hPa 0,0 l/m 1,8 km/h (1 Bft) W-NW 292 8,7 C 10,1 C
29.02.2012 12:17 10,2 C 91 % 1023,7 hPa 0,0 l/m 2,2 km/h (1 Bft) NO 45 8,8 C 10,2 C
29.02.2012 12:22 10,3 C 91 % 1023,7 hPa 0,0 l/m 1,8 km/h (1 Bft) NW 315 8,9 C 10,3 C
29.02.2012 12:27 10,4 C 90 % 1023,6 hPa 0,0 l/m 7,6 km/h (2 Bft) W-NW 292 8,8 C 10,4 C
29.02.2012 12:32 10,5 C 91 % 1023,7 hPa 0,0 l/m 6,1 km/h (2 Bft) NW 315 9,1 C 10,5 C
29.02.2012 12:37 10,6 C 91 % 1023,7 hPa 0,0 l/m 1,1 km/h (1 Bft) S-SO 157 9,2 C 10,6 C
29.02.2012 12:42 10,6 C 90 % 1023,7 hPa 0,0 l/m 3,2 km/h (1 Bft) NW 315 9,0 C 10,6 C
29.02.2012 12:47 10,7 C 90 % 1023,7 hPa 0,0 l/m 6,1 km/h (2 Bft) W-NW 292 9,1 C 10,7 C
29.02.2012 12:52 10,7 C 90 % 1023,6 hPa 0,0 l/m 5,4 km/h (1 Bft) N-NW 337 9,1 C 10,7 C
29.02.2012 12:57 10,7 C 90 % 1023,6 hPa 0,0 l/m 4,0 km/h (1 Bft) W-NW 292 9,1 C 10,7 C
29.02.2012 13:02 10,8 C 90 % 1023,5 hPa 0,0 l/m 8,3 km/h (2 Bft) N-NW 337 9,2 C 10,8 C
29.02.2012 13:07 10,8 C 90 % 1023,6 hPa 0,0 l/m 1,4 km/h (1 Bft) N-NW 337 9,2 C 10,8 C
29.02.2012 13:12 10,9 C 90 % 1023,6 hPa 0,0 l/m 3,6 km/h (1 Bft) NW 315 9,3 C 10,9 C
29.02.2012 13:17 11,0 C 90 % 1023,6 hPa 0,0 l/m 4,0 km/h (1 Bft) W 270 9,4 C 11,0 C
29.02.2012 13:22 11,2 C 90 % 1023,6 hPa 0,0 l/m 4,0 km/h (1 Bft) W-NW 292 9,6 C 11,2 C
29.02.2012 13:27 11,4 C 89 % 1023,6 hPa 0,0 l/m 6,1 km/h (2 Bft) W-NW 292 9,7 C 11,4 C
29.02.2012 13:32 11,5 C 89 % 1023,6 hPa 0,0 l/m 4,7 km/h (1 Bft) NW 315 9,8 C 11,5 C
29.02.2012 13:37 11,6 C 89 % 1023,4 hPa 0,0 l/m 8,6 km/h (2 Bft) W-NW 292 9,8 C 11,6 C
29.02.2012 13:42 11,6 C 89 % 1023,7 hPa 0,0 l/m 6,5 km/h (2 Bft) W-NW 292 9,8 C 11,6 C
29.02.2012 13:47 11,6 C 89 % 1023,7 hPa 0,0 l/m 4,0 km/h (1 Bft) W-NW 292 9,8 C 11,6 C
29.02.2012 13:52 11,8 C 88 % 1023,6 hPa 0,0 l/m 13,0 km/h (3 Bft) W-NW 292 9,9 C 11,8 C
29.02.2012 13:57 11,8 C 88 % 1023,7 hPa 0,0 l/m 4,7 km/h (1 Bft) N-NW 337 9,9 C 11,8 C
29.02.2012 14:02 11,8 C 88 % 1023,6 hPa 0,0 l/m 5,4 km/h (1 Bft) W 270 9,9 C 11,8 C
29.02.2012 14:07 11,8 C 88 % 1023,6 hPa 0,0 l/m 5,0 km/h (1 Bft) W 270 9,9 C 11,8 C
29.02.2012 14:12 11,7 C 88 % 1023,6 hPa 0,0 l/m 6,1 km/h (2 Bft) W 270 9,8 C 11,7 C
29.02.2012 14:17 11,7 C 88 % 1023,6 hPa 0,0 l/m 5,0 km/h (1 Bft) NW 315 9,8 C 11,7 C
29.02.2012 14:22 11,8 C 88 % 1023,5 hPa 0,0 l/m 5,4 km/h (1 Bft) W 270 9,9 C 11,8 C
29.02.2012 14:27 11,8 C 88 % 1023,6 hPa 0,0 l/m 6,8 km/h (2 Bft) W-NW 292 9,9 C 11,8 C
29.02.2012 14:32 11,8 C 87 % 1023,6 hPa 0,0 l/m 9,7 km/h (2 Bft) W-NW 292 9,7 C 11,8 C
29.02.2012 14:37 11,8 C 87 % 1023,4 hPa 0,0 l/m 6,1 km/h (2 Bft) W 270 9,7 C 11,8 C
29.02.2012 14:42 11,7 C 87 % 1023,5 hPa 0,0 l/m 6,5 km/h (2 Bft) W-NW 292 9,6 C 11,7 C
29.02.2012 14:47 11,8 C 87 % 1023,4 hPa 0,0 l/m 9,4 km/h (2 Bft) W 270 9,7 C 11,8 C
29.02.2012 14:52 11,7 C 87 % 1023,3 hPa 0,0 l/m 10,8 km/h (2 Bft) W-NW 292 9,6 C 11,7 C
29.02.2012 14:57 11,8 C 87 % 1023,4 hPa 0,0 l/m 6,1 km/h (2 Bft) W 270 9,7 C 11,8 C
29.02.2012 15:02 11,8 C 87 % 1023,4 hPa 0,0 l/m 8,6 km/h (2 Bft) W-SW 247 9,7 C 11,8 C
29.02.2012 15:07 11,9 C 87 % 1023,4 hPa 0,0 l/m 8,3 km/h (2 Bft) W 270 9,8 C 11,9 C
29.02.2012 15:12 11,9 C 87 % 1023,3 hPa 0,0 l/m 5,4 km/h (1 Bft) W 270 9,8 C 11,9 C
29.02.2012 15:17 11,9 C 87 % 1023,4 hPa 0,0 l/m 7,6 km/h (2 Bft) W-NW 292 9,8 C 11,9 C
29.02.2012 15:22 11,9 C 87 % 1023,5 hPa 0,0 l/m 3,6 km/h (1 Bft) W 270 9,8 C 11,9 C
29.02.2012 15:27 11,9 C 87 % 1023,5 hPa 0,0 l/m 7,2 km/h (2 Bft) NW 315 9,8 C 11,9 C
29.02.2012 15:32 11,9 C 87 % 1023,6 hPa 0,0 l/m 6,5 km/h (2 Bft) NW 315 9,8 C 11,9 C
29.02.2012 15:37 11,9 C 87 % 1023,5 hPa 0,0 l/m 10,8 km/h (2 Bft) W-SW 247 9,8 C 11,9 C
29.02.2012 15:42 11,9 C 87 % 1023,6 hPa 0,0 l/m 4,0 km/h (1 Bft) W 270 9,8 C 11,9 C
29.02.2012 15:47 11,8 C 87 % 1023,5 hPa 0,0 l/m 8,3 km/h (2 Bft) W 270 9,7 C 11,8 C
29.02.2012 15:52 11,8 C 87 % 1023,6 hPa 0,0 l/m 7,2 km/h (2 Bft) W-NW 292 9,7 C 11,8 C
29.02.2012 15:57 11,8 C 87 % 1023,6 hPa 0,0 l/m 7,2 km/h (2 Bft) W 270 9,7 C 11,8 C
29.02.2012 16:02 11,7 C 87 % 1023,4 hPa 0,0 l/m 5,0 km/h (1 Bft) W 270 9,6 C 11,7 C
29.02.2012 16:07 11,7 C 87 % 1023,4 hPa 0,0 l/m 6,5 km/h (2 Bft) W-NW 292 9,6 C 11,7 C
29.02.2012 16:12 11,7 C 87 % 1023,4 hPa 0,0 l/m 6,8 km/h (2 Bft) W-SW 247 9,6 C 11,7 C
29.02.2012 16:17 11,8 C 87 % 1023,5 hPa 0,0 l/m 11,2 km/h (2 Bft) W 270 9,7 C 11,8 C
29.02.2012 16:22 11,8 C 87 % 1023,4 hPa 0,0 l/m 9,0 km/h (2 Bft) W-SW 247 9,7 C 11,8 C
29.02.2012 16:27 11,8 C 87 % 1023,3 hPa 0,0 l/m 6,1 km/h (2 Bft) W-SW 247 9,7 C 11,8 C
29.02.2012 16:32 11,7 C 87 % 1023,7 hPa 0,0 l/m 11,9 km/h (2 Bft) W-SW 247 9,6 C 11,7 C
29.02.2012 16:37 11,6 C 87 % 1023,9 hPa 0,0 l/m 6,1 km/h (2 Bft) W 270 9,5 C 11,6 C
29.02.2012 16:42 11,6 C 87 % 1023,6 hPa 0,0 l/m 7,2 km/h (2 Bft) W-NW 292 9,5 C 11,6 C
29.02.2012 16:47 11,6 C 87 % 1023,8 hPa 0,0 l/m 3,2 km/h (1 Bft) W-SW 247 9,5 C 11,6 C
29.02.2012 16:52 11,5 C 87 % 1023,6 hPa 0,0 l/m 10,1 km/h (2 Bft) W 270 9,4 C 11,5 C
29.02.2012 16:57 11,4 C 88 % 1023,6 hPa 0,0 l/m 5,0 km/h (1 Bft) W 270 9,5 C 11,4 C
29.02.2012 17:02 11,4 C 88 % 1023,8 hPa 0,0 l/m 10,1 km/h (2 Bft) W 270 9,5 C 11,4 C
29.02.2012 17:07 11,3 C 88 % 1023,6 hPa 0,0 l/m 7,2 km/h (2 Bft) W 270 9,4 C 11,3 C
29.02.2012 17:12 11,3 C 88 % 1023,9 hPa 0,0 l/m 6,8 km/h (2 Bft) W-NW 292 9,4 C 11,3 C
29.02.2012 17:17 11,2 C 88 % 1023,7 hPa 0,0 l/m 4,0 km/h (1 Bft) W-NW 292 9,3 C 11,2 C
29.02.2012 17:22 11,1 C 88 % 1023,8 hPa 0,0 l/m 10,8 km/h (2 Bft) NW 315 9,2 C 11,1 C
29.02.2012 17:27 11,1 C 88 % 1023,9 hPa 0,0 l/m 8,6 km/h (2 Bft) W 270 9,2 C 11,1 C
29.02.2012 17:32 11,0 C 88 % 1024,0 hPa 0,0 l/m 9,4 km/h (2 Bft) W-NW 292 9,1 C 11,0 C
29.02.2012 17:37 10,9 C 88 % 1023,9 hPa 0,0 l/m 4,3 km/h (1 Bft) W 270 9,0 C 10,9 C
29.02.2012 17:42 10,9 C 88 % 1023,9 hPa 0,0 l/m 6,5 km/h (2 Bft) NW 315 9,0 C 10,9 C
29.02.2012 17:47 10,9 C 88 % 1023,9 hPa 0,0 l/m 10,4 km/h (2 Bft) W-NW 292 9,0 C 10,9 C
29.02.2012 17:52 10,8 C 88 % 1024,0 hPa 0,0 l/m 9,7 km/h (2 Bft) W-NW 292 8,9 C 10,8 C
29.02.2012 17:57 10,8 C 88 % 1024,0 hPa 0,0 l/m 8,3 km/h (2 Bft) W-NW 292 8,9 C 10,8 C
29.02.2012 18:02 10,7 C 88 % 1024,0 hPa 0,0 l/m 5,4 km/h (1 Bft) W-NW 292 8,8 C 10,7 C
29.02.2012 18:07 10,7 C 89 % 1024,0 hPa 0,0 l/m 4,0 km/h (1 Bft) W-NW 292 9,0 C 10,7 C
29.02.2012 18:12 10,6 C 89 % 1024,0 hPa 0,0 l/m 2,5 km/h (1 Bft) W-NW 292 8,9 C 10,6 C
29.02.2012 18:17 10,6 C 89 % 1024,2 hPa 0,0 l/m 7,6 km/h (2 Bft) W-NW 292 8,9 C 10,6 C
29.02.2012 18:22 10,6 C 89 % 1024,1 hPa 0,0 l/m 5,4 km/h (1 Bft) W-NW 292 8,9 C 10,6 C
29.02.2012 18:27 10,6 C 89 % 1024,1 hPa 0,0 l/m 7,2 km/h (2 Bft) W-NW 292 8,9 C 10,6 C
29.02.2012 18:32 10,5 C 89 % 1024,1 hPa 0,0 l/m 9,4 km/h (2 Bft) NW 315 8,8 C 10,5 C
29.02.2012 18:37 10,5 C 89 % 1024,1 hPa 0,0 l/m 16,2 km/h (3 Bft) W-NW 292 8,8 C 10,5 C
29.02.2012 18:42 10,5 C 90 % 1024,2 hPa 0,0 l/m 11,9 km/h (2 Bft) W-SW 247 8,9 C 10,5 C
29.02.2012 18:47 10,5 C 90 % 1024,3 hPa 0,0 l/m 7,2 km/h (2 Bft) W-NW 292 8,9 C 10,5 C
29.02.2012 18:52 10,5 C 90 % 1024,1 hPa 0,0 l/m 7,9 km/h (2 Bft) W 270 8,9 C 10,5 C
29.02.2012 18:57 10,4 C 90 % 1024,1 hPa 0,0 l/m 9,4 km/h (2 Bft) W 270 8,8 C 10,4 C
29.02.2012 19:02 10,4 C 90 % 1024,2 hPa 0,0 l/m 10,1 km/h (2 Bft) NW 315 8,8 C 10,4 C
29.02.2012 19:07 10,4 C 90 % 1024,3 hPa 0,0 l/m 7,9 km/h (2 Bft) W-NW 292 8,8 C 10,4 C
29.02.2012 19:12 10,3 C 90 % 1024,2 hPa 0,0 l/m 7,9 km/h (2 Bft) W-NW 292 8,7 C 10,3 C
29.02.2012 19:17 10,3 C 90 % 1024,1 hPa 0,0 l/m 3,2 km/h (1 Bft) W 270 8,7 C 10,3 C
29.02.2012 19:22 10,3 C 90 % 1024,3 hPa 0,0 l/m 8,3 km/h (2 Bft) W 270 8,7 C 10,3 C
29.02.2012 19:27 10,3 C 90 % 1024,3 hPa 0,0 l/m 5,4 km/h (1 Bft) W-NW 292 8,7 C 10,3 C
29.02.2012 19:32 10,2 C 90 % 1024,4 hPa 0,0 l/m 4,0 km/h (1 Bft) W-NW 292 8,6 C 10,2 C
29.02.2012 19:37 10,2 C 90 % 1024,5 hPa 0,0 l/m 5,4 km/h (1 Bft) W-NW 292 8,6 C 10,2 C
29.02.2012 19:42 10,1 C 90 % 1024,3 hPa 0,0 l/m 7,2 km/h (2 Bft) NW 315 8,5 C 10,1 C
29.02.2012 19:47 10,1 C 90 % 1024,4 hPa 0,0 l/m 3,2 km/h (1 Bft) NW 315 8,5 C 10,1 C
29.02.2012 19:52 10,1 C 90 % 1024,6 hPa 0,0 l/m 2,2 km/h (1 Bft) N 360 8,5 C 10,1 C
29.02.2012 19:57 10,0 C 90 % 1024,5 hPa 0,0 l/m 2,5 km/h (1 Bft) W-NW 292 8,4 C 10,0 C
29.02.2012 20:02 9,9 C 90 % 1024,6 hPa 0,0 l/m 2,5 km/h (1 Bft) NW 315 8,3 C 9,9 C
29.02.2012 20:07 9,9 C 90 % 1024,7 hPa 0,0 l/m 4,3 km/h (1 Bft) NW 315 8,3 C 9,9 C
29.02.2012 20:12 9,9 C 90 % 1024,6 hPa 0,0 l/m 4,0 km/h (1 Bft) W 270 8,3 C 9,9 C
29.02.2012 20:17 9,9 C 90 % 1024,7 hPa 0,0 l/m 4,7 km/h (1 Bft) W-NW 292 8,3 C 9,7 C
29.02.2012 20:22 9,9 C 90 % 1024,6 hPa 0,0 l/m 4,0 km/h (1 Bft) W-NW 292 8,3 C 9,9 C
29.02.2012 20:27 9,9 C 91 % 1024,7 hPa 0,0 l/m 2,2 km/h (1 Bft) W 270 8,5 C 9,9 C
29.02.2012 20:32 9,9 C 91 % 1024,7 hPa 0,0 l/m 4,3 km/h (1 Bft) W-NW 292 8,5 C 9,9 C
29.02.2012 20:37 9,9 C 91 % 1024,5 hPa 0,0 l/m 0,0 km/h (0 Bft) W 270 8,5 C 9,9 C
29.02.2012 20:42 9,9 C 91 % 1024,5 hPa 0,0 l/m 0,0 km/h (0 Bft) W 270 8,5 C 9,9 C
29.02.2012 20:47 9,9 C 91 % 1024,7 hPa 0,0 l/m 4,7 km/h (1 Bft) W-NW 292 8,5 C 9,7 C
29.02.2012 20:52 9,9 C 91 % 1024,5 hPa 0,0 l/m 3,6 km/h (1 Bft) W-NW 292 8,5 C 9,9 C
29.02.2012 20:57 9,9 C 91 % 1024,7 hPa 0,0 l/m 1,4 km/h (1 Bft) W 270 8,5 C 9,9 C
29.02.2012 21:02 9,9 C 91 % 1024,8 hPa 0,0 l/m 2,2 km/h (1 Bft) W 270 8,5 C 9,9 C
29.02.2012 21:07 9,9 C 91 % 1024,9 hPa 0,0 l/m 2,5 km/h (1 Bft) W 270 8,5 C 9,9 C
29.02.2012 21:12 9,8 C 91 % 1024,7 hPa 0,0 l/m 1,1 km/h (1 Bft) W 270 8,4 C 9,8 C
29.02.2012 21:17 9,8 C 91 % 1024,6 hPa 0,0 l/m 0,0 km/h (0 Bft) W 270 8,4 C 9,8 C
29.02.2012 21:22 9,8 C 91 % 1024,7 hPa 0,0 l/m 3,6 km/h (1 Bft) W 270 8,4 C 9,8 C
29.02.2012 21:27 9,9 C 91 % 1024,7 hPa 0,0 l/m 2,5 km/h (1 Bft) W 270 8,5 C 9,9 C
29.02.2012 21:32 9,9 C 92 % 1024,8 hPa 0,0 l/m 2,2 km/h (1 Bft) W 270 8,7 C 9,9 C
29.02.2012 21:37 9,9 C 92 % 1024,8 hPa 0,0 l/m 2,5 km/h (1 Bft) W-NW 292 8,7 C 9,9 C
29.02.2012 21:42 9,9 C 92 % 1024,7 hPa 0,0 l/m 3,6 km/h (1 Bft) W 270 8,7 C 9,9 C
29.02.2012 21:47 9,9 C 92 % 1024,8 hPa 0,0 l/m 4,3 km/h (1 Bft) W-NW 292 8,7 C 9,9 C
29.02.2012 21:52 9,9 C 92 % 1024,9 hPa 0,0 l/m 5,0 km/h (1 Bft) W-NW 292 8,7 C 9,6 C
29.02.2012 21:57 9,9 C 92 % 1024,8 hPa 0,0 l/m 5,4 km/h (1 Bft) W 270 8,7 C 9,5 C
29.02.2012 22:02 9,9 C 92 % 1024,9 hPa 0,0 l/m 3,6 km/h (1 Bft) W-NW 292 8,7 C 9,9 C
29.02.2012 22:07 9,9 C 92 % 1024,7 hPa 0,0 l/m 4,0 km/h (1 Bft) W 270 8,7 C 9,9 C
29.02.2012 22:12 9,9 C 92 % 1024,9 hPa 0,0 l/m 4,3 km/h (1 Bft) W-SW 247 8,7 C 9,9 C
29.02.2012 22:17 9,9 C 92 % 1024,8 hPa 0,0 l/m 2,2 km/h (1 Bft) W 270 8,7 C 9,9 C
29.02.2012 22:22 9,9 C 92 % 1024,7 hPa 0,0 l/m 2,2 km/h (1 Bft) W 270 8,7 C 9,9 C
29.02.2012 22:27 9,9 C 92 % 1024,7 hPa 0,0 l/m 3,6 km/h (1 Bft) W-NW 292 8,7 C 9,9 C
29.02.2012 22:32 9,8 C 92 % 1024,8 hPa 0,0 l/m 2,5 km/h (1 Bft) W-NW 292 8,6 C 9,8 C
29.02.2012 22:37 9,8 C 92 % 1024,8 hPa 0,0 l/m 2,9 km/h (1 Bft) W 270 8,6 C 9,8 C
29.02.2012 22:42 9,8 C 92 % 1024,9 hPa 0,0 l/m 4,0 km/h (1 Bft) W 270 8,6 C 9,8 C
29.02.2012 22:47 9,8 C 92 % 1024,8 hPa 0,0 l/m 1,8 km/h (1 Bft) W 270 8,6 C 9,8 C
29.02.2012 22:52 9,8 C 92 % 1024,9 hPa 0,0 l/m 1,4 km/h (1 Bft) W 270 8,6 C 9,8 C
29.02.2012 22:57 9,8 C 92 % 1024,8 hPa 0,0 l/m 1,4 km/h (1 Bft) W 270 8,6 C 9,8 C
29.02.2012 23:02 9,8 C 92 % 1024,8 hPa 0,0 l/m 2,9 km/h (1 Bft) W-SW 247 8,6 C 9,8 C
29.02.2012 23:07 9,8 C 92 % 1024,7 hPa 0,0 l/m 4,3 km/h (1 Bft) W-NW 292 8,6 C 9,8 C
29.02.2012 23:12 9,8 C 92 % 1024,5 hPa 0,0 l/m 3,2 km/h (1 Bft) W 270 8,6 C 9,8 C
29.02.2012 23:17 9,8 C 92 % 1024,7 hPa 0,0 l/m 4,3 km/h (1 Bft) W-NW 292 8,6 C 9,8 C
29.02.2012 23:22 9,8 C 92 % 1024,7 hPa 0,0 l/m 2,2 km/h (1 Bft) W 270 8,6 C 9,8 C
29.02.2012 23:27 9,8 C 92 % 1024,7 hPa 0,0 l/m 3,2 km/h (1 Bft) W 270 8,6 C 9,8 C
29.02.2012 23:32 9,8 C 92 % 1024,5 hPa 0,0 l/m 2,2 km/h (1 Bft) W 270 8,6 C 9,8 C
29.02.2012 23:37 9,8 C 92 % 1024,6 hPa 0,0 l/m 2,2 km/h (1 Bft) W 270 8,6 C 9,8 C
29.02.2012 23:42 9,8 C 92 % 1024,6 hPa 0,0 l/m 2,2 km/h (1 Bft) W 270 8,6 C 9,8 C
29.02.2012 23:47 9,8 C 92 % 1024,5 hPa 0,0 l/m 3,2 km/h (1 Bft) W-SW 247 8,6 C 9,8 C
29.02.2012 23:52 9,8 C 92 % 1024,6 hPa 0,0 l/m 0,0 km/h (0 Bft) W 270 8,6 C 9,8 C
29.02.2012 23:57 9,8 C 92 % 1024,4 hPa 0,0 l/m 2,2 km/h (1 Bft) W-SW 247 8,6 C 9,8 C
_ Min-Zeit 07:32 14:32 00:02 - 06:02 - - 07:32 05:42
Minimum _ 8,8 C 87 % 1018,7 hPa - 0,0 km/h (0 Bft) - - 7,6 C 6,0 C
_ Max-Zeit 15:07 03:32 21:07 00:02 05:42 - - 13:52 15:07
Maximum _ 11,9 C 93 % 1024,9 hPa 0,0 l/m 23,0 km/h
N-NW (4 Bft)
- - 9,9 C 11,9 C
Durchschnitt _ 10,0 C 91 % 1022,6 hPa #0,0 l/m 7,1 km/h (2 Bft) W-NW - 8,6 C 9,4 C
(c) by David Heller